sensor_id;sensor_type;location;lat;lon;timestamp;temperature;humidity
36690;DHT22;22676;51.120;3.702;2023-05-10T00:02:22;25.00;49.90
36690;DHT22;22676;51.120;3.702;2023-05-10T00:04:48;24.90;49.90
36690;DHT22;22676;51.120;3.702;2023-05-10T00:07:14;24.90;49.90
36690;DHT22;22676;51.120;3.702;2023-05-10T00:09:41;24.90;49.90
36690;DHT22;22676;51.120;3.702;2023-05-10T00:12:06;24.80;49.90
36690;DHT22;22676;51.120;3.702;2023-05-10T00:14:32;24.80;50.10
36690;DHT22;22676;51.120;3.702;2023-05-10T00:16:57;24.80;50.10
36690;DHT22;22676;51.120;3.702;2023-05-10T00:19:23;24.90;50.00
36690;DHT22;22676;51.120;3.702;2023-05-10T00:21:48;24.90;50.00
36690;DHT22;22676;51.120;3.702;2023-05-10T00:24:14;24.80;50.00
36690;DHT22;22676;51.120;3.702;2023-05-10T00:26:39;24.80;50.00
36690;DHT22;22676;51.120;3.702;2023-05-10T00:29:06;24.80;50.10
36690;DHT22;22676;51.120;3.702;2023-05-10T00:31:31;24.80;50.10
36690;DHT22;22676;51.120;3.702;2023-05-10T00:33:57;24.80;50.00
36690;DHT22;22676;51.120;3.702;2023-05-10T00:36:22;24.80;49.40
36690;DHT22;22676;51.120;3.702;2023-05-10T00:38:48;24.80;49.40
36690;DHT22;22676;51.120;3.702;2023-05-10T00:41:14;24.80;49.90
36690;DHT22;22676;51.120;3.702;2023-05-10T00:43:40;24.70;50.00
36690;DHT22;22676;51.120;3.702;2023-05-10T00:46:05;24.80;49.90
36690;DHT22;22676;51.120;3.702;2023-05-10T00:48:31;24.80;49.90
36690;DHT22;22676;51.120;3.702;2023-05-10T00:50:57;24.80;49.90
36690;DHT22;22676;51.120;3.702;2023-05-10T00:53:23;24.80;49.80
36690;DHT22;22676;51.120;3.702;2023-05-10T00:55:48;24.80;49.80
36690;DHT22;22676;51.120;3.702;2023-05-10T00:58:14;24.80;49.70
36690;DHT22;22676;51.120;3.702;2023-05-10T01:00:41;24.80;49.70
36690;DHT22;22676;51.120;3.702;2023-05-10T01:03:07;24.80;49.80
36690;DHT22;22676;51.120;3.702;2023-05-10T01:05:33;24.80;49.80
36690;DHT22;22676;51.120;3.702;2023-05-10T01:07:58;24.90;49.80
36690;DHT22;22676;51.120;3.702;2023-05-10T01:10:24;24.90;49.70
36690;DHT22;22676;51.120;3.702;2023-05-10T01:12:49;24.90;49.60
36690;DHT22;22676;51.120;3.702;2023-05-10T01:15:15;24.90;49.60
36690;DHT22;22676;51.120;3.702;2023-05-10T01:17:42;24.80;49.70
36690;DHT22;22676;51.120;3.702;2023-05-10T01:20:08;24.80;49.70
36690;DHT22;22676;51.120;3.702;2023-05-10T01:22:56;24.80;49.80
36690;DHT22;22676;51.120;3.702;2023-05-10T01:30:41;24.60;50.10
36690;DHT22;22676;51.120;3.702;2023-05-10T01:35:52;24.50;49.80
36690;DHT22;22676;51.120;3.702;2023-05-10T01:43:31;24.20;50.10
36690;DHT22;22676;51.120;3.702;2023-05-10T01:46:07;24.20;50.40
36690;DHT22;22676;51.120;3.702;2023-05-10T01:48:40;24.10;50.60
36690;DHT22;22676;51.120;3.702;2023-05-10T01:51:06;24.10;50.70
36690;DHT22;22676;51.120;3.702;2023-05-10T01:53:32;24.10;50.90
36690;DHT22;22676;51.120;3.702;2023-05-10T01:55:59;24.00;50.80
36690;DHT22;22676;51.120;3.702;2023-05-10T01:58:32;24.10;50.90
36690;DHT22;22676;51.120;3.702;2023-05-10T02:01:00;24.00;50.90
36690;DHT22;22676;51.120;3.702;2023-05-10T02:03:26;24.00;51.00
36690;DHT22;22676;51.120;3.702;2023-05-10T02:05:53;24.00;51.00
36690;DHT22;22676;51.120;3.702;2023-05-10T02:08:19;23.90;51.10
36690;DHT22;22676;51.120;3.702;2023-05-10T02:10:46;23.90;51.10
36690;DHT22;22676;51.120;3.702;2023-05-10T02:13:12;23.90;51.20
36690;DHT22;22676;51.120;3.702;2023-05-10T02:15:38;23.90;51.10
36690;DHT22;22676;51.120;3.702;2023-05-10T02:18:05;23.90;51.20
36690;DHT22;22676;51.120;3.702;2023-05-10T02:20:31;23.90;51.10
36690;DHT22;22676;51.120;3.702;2023-05-10T02:22:57;23.90;51.10
36690;DHT22;22676;51.120;3.702;2023-05-10T02:25:23;23.90;51.10
36690;DHT22;22676;51.120;3.702;2023-05-10T02:27:50;23.80;51.20
36690;DHT22;22676;51.120;3.702;2023-05-10T02:30:17;23.80;51.20
36690;DHT22;22676;51.120;3.702;2023-05-10T02:32:44;23.80;51.20
36690;DHT22;22676;51.120;3.702;2023-05-10T02:35:10;23.80;50.50
36690;DHT22;22676;51.120;3.702;2023-05-10T02:37:39;23.80;50.40
36690;DHT22;22676;51.120;3.702;2023-05-10T02:40:05;23.80;50.50
36690;DHT22;22676;51.120;3.702;2023-05-10T02:42:31;23.70;50.70
36690;DHT22;22676;51.120;3.702;2023-05-10T02:45:01;23.70;50.70
36690;DHT22;22676;51.120;3.702;2023-05-10T02:47:28;23.70;50.90
36690;DHT22;22676;51.120;3.702;2023-05-10T02:49:54;23.70;51.10
36690;DHT22;22676;51.120;3.702;2023-05-10T02:52:24;23.60;51.10
36690;DHT22;22676;51.120;3.702;2023-05-10T02:54:52;23.70;51.20
36690;DHT22;22676;51.120;3.702;2023-05-10T02:57:21;23.60;51.20
36690;DHT22;22676;51.120;3.702;2023-05-10T02:59:48;23.60;51.30
36690;DHT22;22676;51.120;3.702;2023-05-10T03:02:14;23.60;51.30
36690;DHT22;22676;51.120;3.702;2023-05-10T03:04:39;23.60;51.20
36690;DHT22;22676;51.120;3.702;2023-05-10T03:07:05;23.60;51.30
36690;DHT22;22676;51.120;3.702;2023-05-10T03:09:31;23.60;51.30
36690;DHT22;22676;51.120;3.702;2023-05-10T03:14:34;23.60;51.30
36690;DHT22;22676;51.120;3.702;2023-05-10T03:17:08;23.50;51.30
36690;DHT22;22676;51.120;3.702;2023-05-10T03:19:56;23.50;51.40
36690;DHT22;22676;51.120;3.702;2023-05-10T03:22:25;23.50;51.40
36690;DHT22;22676;51.120;3.702;2023-05-10T03:24:53;23.50;51.40
36690;DHT22;22676;51.120;3.702;2023-05-10T03:27:20;23.40;51.40
36690;DHT22;22676;51.120;3.702;2023-05-10T03:29:46;23.50;51.50
36690;DHT22;22676;51.120;3.702;2023-05-10T03:32:11;23.40;51.50
36690;DHT22;22676;51.120;3.702;2023-05-10T03:34:41;23.50;51.10
36690;DHT22;22676;51.120;3.702;2023-05-10T03:37:06;23.50;50.80
36690;DHT22;22676;51.120;3.702;2023-05-10T03:39:32;23.50;50.70
36690;DHT22;22676;51.120;3.702;2023-05-10T03:41:57;23.40;50.80
36690;DHT22;22676;51.120;3.702;2023-05-10T03:44:23;23.40;50.90
36690;DHT22;22676;51.120;3.702;2023-05-10T03:46:48;23.30;51.00
36690;DHT22;22676;51.120;3.702;2023-05-10T03:49:14;23.40;51.20
36690;DHT22;22676;51.120;3.702;2023-05-10T03:51:39;23.40;51.20
36690;DHT22;22676;51.120;3.702;2023-05-10T03:54:05;23.60;50.90
36690;DHT22;22676;51.120;3.702;2023-05-10T03:56:30;23.60;50.80
36690;DHT22;22676;51.120;3.702;2023-05-10T03:58:56;23.70;50.50
36690;DHT22;22676;51.120;3.702;2023-05-10T04:01:21;23.80;50.30
36690;DHT22;22676;51.120;3.702;2023-05-10T04:03:47;23.90;50.10
36690;DHT22;22676;51.120;3.702;2023-05-10T04:06:12;24.00;50.10
36690;DHT22;22676;51.120;3.702;2023-05-10T04:08:38;24.00;49.90
36690;DHT22;22676;51.120;3.702;2023-05-10T04:11:04;24.10;49.70
36690;DHT22;22676;51.120;3.702;2023-05-10T04:13:30;24.20;49.60
36690;DHT22;22676;51.120;3.702;2023-05-10T04:15:56;24.10;49.70
36690;DHT22;22676;51.120;3.702;2023-05-10T04:18:21;24.20;49.70
36690;DHT22;22676;51.120;3.702;2023-05-10T04:20:47;24.30;49.50
36690;DHT22;22676;51.120;3.702;2023-05-10T04:23:12;24.30;49.50
36690;DHT22;22676;51.120;3.702;2023-05-10T04:25:39;24.30;49.50
36690;DHT22;22676;51.120;3.702;2023-05-10T04:28:05;24.40;49.50
36690;DHT22;22676;51.120;3.702;2023-05-10T04:30:30;24.40;49.40
36690;DHT22;22676;51.120;3.702;2023-05-10T04:32:56;24.50;49.20
36690;DHT22;22676;51.120;3.702;2023-05-10T04:35:21;24.70;47.90
36690;DHT22;22676;51.120;3.702;2023-05-10T04:37:47;24.70;47.70
36690;DHT22;22676;51.120;3.702;2023-05-10T04:40:12;24.70;47.90
36690;DHT22;22676;51.120;3.702;2023-05-10T04:42:39;24.60;48.80
36690;DHT22;22676;51.120;3.702;2023-05-10T04:45:05;24.70;48.90
36690;DHT22;22676;51.120;3.702;2023-05-10T04:47:31;24.80;48.90
36690;DHT22;22676;51.120;3.702;2023-05-10T04:49:57;24.90;48.70
36690;DHT22;22676;51.120;3.702;2023-05-10T04:52:23;25.00;48.60
36690;DHT22;22676;51.120;3.702;2023-05-10T04:54:49;25.10;48.30
36690;DHT22;22676;51.120;3.702;2023-05-10T04:57:14;25.20;48.10
36690;DHT22;22676;51.120;3.702;2023-05-10T04:59:40;25.20;48.20
36690;DHT22;22676;51.120;3.702;2023-05-10T05:02:05;25.20;48.40
36690;DHT22;22676;51.120;3.702;2023-05-10T05:04:31;25.10;48.50
36690;DHT22;22676;51.120;3.702;2023-05-10T05:06:57;25.10;48.60
36690;DHT22;22676;51.120;3.702;2023-05-10T05:09:22;25.00;48.70
36690;DHT22;22676;51.120;3.702;2023-05-10T05:11:48;25.00;48.80
36690;DHT22;22676;51.120;3.702;2023-05-10T05:14:14;24.90;49.00
36690;DHT22;22676;51.120;3.702;2023-05-10T05:16:39;24.90;49.30
36690;DHT22;22676;51.120;3.702;2023-05-10T05:19:05;24.80;49.40
36690;DHT22;22676;51.120;3.702;2023-05-10T05:21:30;24.80;49.70
36690;DHT22;22676;51.120;3.702;2023-05-10T05:23:57;24.70;49.70
36690;DHT22;22676;51.120;3.702;2023-05-10T05:26:22;24.70;49.90
36690;DHT22;22676;51.120;3.702;2023-05-10T05:28:48;24.70;49.90
36690;DHT22;22676;51.120;3.702;2023-05-10T05:31:16;24.70;49.90
36690;DHT22;22676;51.120;3.702;2023-05-10T05:33:43;24.60;50.00
36690;DHT22;22676;51.120;3.702;2023-05-10T05:36:08;24.60;49.10
36690;DHT22;22676;51.120;3.702;2023-05-10T05:38:34;24.50;49.00
36690;DHT22;22676;51.120;3.702;2023-05-10T05:40:59;24.40;49.90
36690;DHT22;22676;51.120;3.702;2023-05-10T05:43:25;24.30;50.20
36690;DHT22;22676;51.120;3.702;2023-05-10T05:45:54;24.30;50.30
36690;DHT22;22676;51.120;3.702;2023-05-10T05:48:20;24.30;50.30
36690;DHT22;22676;51.120;3.702;2023-05-10T05:50:45;24.30;50.30
36690;DHT22;22676;51.120;3.702;2023-05-10T05:53:11;24.30;50.30
36690;DHT22;22676;51.120;3.702;2023-05-10T05:55:37;24.40;50.40
36690;DHT22;22676;51.120;3.702;2023-05-10T05:58:02;24.30;50.30
36690;DHT22;22676;51.120;3.702;2023-05-10T06:00:28;24.30;50.30
36690;DHT22;22676;51.120;3.702;2023-05-10T06:02:54;24.30;50.30
36690;DHT22;22676;51.120;3.702;2023-05-10T06:05:19;24.20;50.40
36690;DHT22;22676;51.120;3.702;2023-05-10T06:07:46;24.20;50.40
36690;DHT22;22676;51.120;3.702;2023-05-10T06:10:11;24.20;50.30
36690;DHT22;22676;51.120;3.702;2023-05-10T06:12:37;24.20;50.40
36690;DHT22;22676;51.120;3.702;2023-05-10T06:15:03;24.20;50.40
36690;DHT22;22676;51.120;3.702;2023-05-10T06:17:28;24.20;50.40
36690;DHT22;22676;51.120;3.702;2023-05-10T06:19:54;24.20;50.60
36690;DHT22;22676;51.120;3.702;2023-05-10T06:22:20;24.20;50.60
36690;DHT22;22676;51.120;3.702;2023-05-10T06:24:48;24.20;50.40
36690;DHT22;22676;51.120;3.702;2023-05-10T06:27:13;24.20;50.40
36690;DHT22;22676;51.120;3.702;2023-05-10T06:29:39;24.20;50.40
36690;DHT22;22676;51.120;3.702;2023-05-10T06:32:04;24.20;50.30
36690;DHT22;22676;51.120;3.702;2023-05-10T06:34:30;24.20;50.00
36690;DHT22;22676;51.120;3.702;2023-05-10T06:36:56;24.20;49.70
36690;DHT22;22676;51.120;3.702;2023-05-10T06:39:21;24.10;49.70
36690;DHT22;22676;51.120;3.702;2023-05-10T06:41:47;24.10;50.10
36690;DHT22;22676;51.120;3.702;2023-05-10T06:44:13;24.00;50.30
36690;DHT22;22676;51.120;3.702;2023-05-10T06:46:39;24.00;50.30
36690;DHT22;22676;51.120;3.702;2023-05-10T06:49:04;24.00;50.90
36690;DHT22;22676;51.120;3.702;2023-05-10T06:51:30;23.90;50.20
36690;DHT22;22676;51.120;3.702;2023-05-10T06:53:56;23.90;50.40
36690;DHT22;22676;51.120;3.702;2023-05-10T06:56:21;23.90;50.50
36690;DHT22;22676;51.120;3.702;2023-05-10T06:58:47;23.90;50.60
36690;DHT22;22676;51.120;3.702;2023-05-10T07:01:13;23.90;50.70
36690;DHT22;22676;51.120;3.702;2023-05-10T07:03:38;24.00;50.60
36690;DHT22;22676;51.120;3.702;2023-05-10T07:06:04;24.00;50.50
36690;DHT22;22676;51.120;3.702;2023-05-10T07:08:33;24.00;50.30
36690;DHT22;22676;51.120;3.702;2023-05-10T07:11:03;24.10;50.10
36690;DHT22;22676;51.120;3.702;2023-05-10T07:13:29;24.10;50.60
36690;DHT22;22676;51.120;3.702;2023-05-10T07:15:55;24.10;51.10
36690;DHT22;22676;51.120;3.702;2023-05-10T07:18:21;24.10;50.40
36690;DHT22;22676;51.120;3.702;2023-05-10T07:20:46;24.20;50.30
36690;DHT22;22676;51.120;3.702;2023-05-10T07:23:12;24.20;50.20
36690;DHT22;22676;51.120;3.702;2023-05-10T07:25:37;24.20;50.40
36690;DHT22;22676;51.120;3.702;2023-05-10T07:28:03;24.10;50.80
36690;DHT22;22676;51.120;3.702;2023-05-10T07:30:29;24.20;50.70
36690;DHT22;22676;51.120;3.702;2023-05-10T07:32:54;24.20;50.80
36690;DHT22;22676;51.120;3.702;2023-05-10T07:35:20;24.30;50.70
36690;DHT22;22676;51.120;3.702;2023-05-10T07:37:46;24.30;50.60
36690;DHT22;22676;51.120;3.702;2023-05-10T07:40:11;24.20;50.40
36690;DHT22;22676;51.120;3.702;2023-05-10T07:42:37;24.10;51.60
36690;DHT22;22676;51.120;3.702;2023-05-10T07:45:03;24.20;51.80
36690;DHT22;22676;51.120;3.702;2023-05-10T07:47:29;24.30;51.70
36690;DHT22;22676;51.120;3.702;2023-05-10T07:49:54;24.20;51.90
36690;DHT22;22676;51.120;3.702;2023-05-10T07:52:20;24.20;52.30
36690;DHT22;22676;51.120;3.702;2023-05-10T07:54:46;24.20;52.20
36690;DHT22;22676;51.120;3.702;2023-05-10T07:57:11;24.30;51.90
36690;DHT22;22676;51.120;3.702;2023-05-10T07:59:39;24.30;52.00
36690;DHT22;22676;51.120;3.702;2023-05-10T08:02:05;24.30;52.60
36690;DHT22;22676;51.120;3.702;2023-05-10T08:04:31;24.30;52.10
36690;DHT22;22676;51.120;3.702;2023-05-10T08:06:56;24.30;51.90
36690;DHT22;22676;51.120;3.702;2023-05-10T08:09:22;24.40;51.70
36690;DHT22;22676;51.120;3.702;2023-05-10T08:11:49;24.40;51.50
36690;DHT22;22676;51.120;3.702;2023-05-10T08:14:15;24.40;51.10
36690;DHT22;22676;51.120;3.702;2023-05-10T08:16:40;24.40;51.10
36690;DHT22;22676;51.120;3.702;2023-05-10T08:19:06;24.50;51.00
36690;DHT22;22676;51.120;3.702;2023-05-10T08:21:32;24.50;51.00
36690;DHT22;22676;51.120;3.702;2023-05-10T08:23:57;24.40;51.50
36690;DHT22;22676;51.120;3.702;2023-05-10T08:26:23;24.40;51.80
36690;DHT22;22676;51.120;3.702;2023-05-10T08:28:48;24.40;51.60
36690;DHT22;22676;51.120;3.702;2023-05-10T08:31:14;24.40;51.50
36690;DHT22;22676;51.120;3.702;2023-05-10T08:33:40;24.50;51.50
36690;DHT22;22676;51.120;3.702;2023-05-10T08:36:06;24.50;51.10
36690;DHT22;22676;51.120;3.702;2023-05-10T08:38:31;24.40;51.00
36690;DHT22;22676;51.120;3.702;2023-05-10T08:40:57;24.40;51.00
36690;DHT22;22676;51.120;3.702;2023-05-10T08:43:26;24.40;51.40
36690;DHT22;22676;51.120;3.702;2023-05-10T08:45:53;24.40;51.70
36690;DHT22;22676;51.120;3.702;2023-05-10T08:48:19;24.40;51.50
36690;DHT22;22676;51.120;3.702;2023-05-10T08:50:46;24.30;52.20
36690;DHT22;22676;51.120;3.702;2023-05-10T08:53:13;24.40;52.20
36690;DHT22;22676;51.120;3.702;2023-05-10T08:55:39;24.40;51.90
36690;DHT22;22676;51.120;3.702;2023-05-10T08:58:07;24.40;52.00
36690;DHT22;22676;51.120;3.702;2023-05-10T09:00:33;24.40;52.00
36690;DHT22;22676;51.120;3.702;2023-05-10T09:02:59;24.40;52.00
36690;DHT22;22676;51.120;3.702;2023-05-10T09:05:25;24.40;52.00
36690;DHT22;22676;51.120;3.702;2023-05-10T09:07:50;24.40;52.00
36690;DHT22;22676;51.120;3.702;2023-05-10T09:10:16;24.40;52.00
36690;DHT22;22676;51.120;3.702;2023-05-10T09:12:42;24.40;52.00
36690;DHT22;22676;51.120;3.702;2023-05-10T09:15:09;24.40;52.10
36690;DHT22;22676;51.120;3.702;2023-05-10T09:17:35;24.40;52.00
36690;DHT22;22676;51.120;3.702;2023-05-10T09:20:01;24.40;52.70
36690;DHT22;22676;51.120;3.702;2023-05-10T09:22:28;24.40;53.30
36690;DHT22;22676;51.120;3.702;2023-05-10T09:25:06;24.30;52.90
36690;DHT22;22676;51.120;3.702;2023-05-10T09:27:32;24.20;52.50
36690;DHT22;22676;51.120;3.702;2023-05-10T09:29:58;24.20;52.40
36690;DHT22;22676;51.120;3.702;2023-05-10T09:32:42;24.10;52.60
36690;DHT22;22676;51.120;3.702;2023-05-10T09:35:12;24.10;52.40
36690;DHT22;22676;51.120;3.702;2023-05-10T09:37:42;24.00;52.30
36690;DHT22;22676;51.120;3.702;2023-05-10T09:40:11;24.00;52.30
36690;DHT22;22676;51.120;3.702;2023-05-10T09:42:36;24.00;52.40
36690;DHT22;22676;51.120;3.702;2023-05-10T09:45:03;23.90;52.90
36690;DHT22;22676;51.120;3.702;2023-05-10T09:47:31;23.90;52.60
36690;DHT22;22676;51.120;3.702;2023-05-10T09:49:57;24.00;52.90
36690;DHT22;22676;51.120;3.702;2023-05-10T09:52:28;23.90;52.30
36690;DHT22;22676;51.120;3.702;2023-05-10T09:54:54;24.00;52.20
36690;DHT22;22676;51.120;3.702;2023-05-10T09:57:20;23.90;52.20
36690;DHT22;22676;51.120;3.702;2023-05-10T09:59:46;24.00;51.90
36690;DHT22;22676;51.120;3.702;2023-05-10T10:02:12;24.00;51.80
36690;DHT22;22676;51.120;3.702;2023-05-10T10:04:40;24.10;51.90
36690;DHT22;22676;51.120;3.702;2023-05-10T10:07:07;24.10;51.90
36690;DHT22;22676;51.120;3.702;2023-05-10T10:09:32;24.10;52.30
36690;DHT22;22676;51.120;3.702;2023-05-10T10:12:02;24.00;52.50
36690;DHT22;22676;51.120;3.702;2023-05-10T10:14:28;24.00;52.50
36690;DHT22;22676;51.120;3.702;2023-05-10T10:16:54;24.00;52.60
36690;DHT22;22676;51.120;3.702;2023-05-10T10:19:20;24.00;52.50
36690;DHT22;22676;51.120;3.702;2023-05-10T10:21:54;24.00;52.50
36690;DHT22;22676;51.120;3.702;2023-05-10T10:24:20;24.00;52.40
36690;DHT22;22676;51.120;3.702;2023-05-10T10:26:45;24.00;52.10
36690;DHT22;22676;51.120;3.702;2023-05-10T10:29:29;23.90;52.20
36690;DHT22;22676;51.120;3.702;2023-05-10T10:34:30;24.00;52.10
36690;DHT22;22676;51.120;3.702;2023-05-10T10:36:56;24.00;51.80
36690;DHT22;22676;51.120;3.702;2023-05-10T10:39:22;24.00;51.70
36690;DHT22;22676;51.120;3.702;2023-05-10T10:41:53;23.90;50.90
36690;DHT22;22676;51.120;3.702;2023-05-10T10:49:22;23.70;52.00
36690;DHT22;22676;51.120;3.702;2023-05-10T10:54:32;23.80;52.50
36690;DHT22;22676;51.120;3.702;2023-05-10T10:57:11;23.80;52.90
36690;DHT22;22676;51.120;3.702;2023-05-10T10:59:41;23.90;53.20
36690;DHT22;22676;51.120;3.702;2023-05-10T11:02:07;24.00;53.10
36690;DHT22;22676;51.120;3.702;2023-05-10T11:04:42;23.90;53.00
36690;DHT22;22676;51.120;3.702;2023-05-10T11:07:18;24.00;52.90
36690;DHT22;22676;51.120;3.702;2023-05-10T11:09:45;24.00;52.90
36690;DHT22;22676;51.120;3.702;2023-05-10T11:12:11;24.00;52.90
36690;DHT22;22676;51.120;3.702;2023-05-10T11:14:37;24.00;52.90
36690;DHT22;22676;51.120;3.702;2023-05-10T11:17:21;23.90;53.00
36690;DHT22;22676;51.120;3.702;2023-05-10T11:20:02;23.90;53.10
36690;DHT22;22676;51.120;3.702;2023-05-10T11:22:28;24.00;53.20
36690;DHT22;22676;51.120;3.702;2023-05-10T11:24:57;24.00;53.10
36690;DHT22;22676;51.120;3.702;2023-05-10T11:27:26;24.00;53.10
36690;DHT22;22676;51.120;3.702;2023-05-10T11:29:51;24.00;53.20
36690;DHT22;22676;51.120;3.702;2023-05-10T11:32:17;24.00;53.80
36690;DHT22;22676;51.120;3.702;2023-05-10T11:34:46;24.00;53.20
36690;DHT22;22676;51.120;3.702;2023-05-10T11:37:13;24.00;52.90
36690;DHT22;22676;51.120;3.702;2023-05-10T11:39:38;24.00;52.90
36690;DHT22;22676;51.120;3.702;2023-05-10T11:42:11;24.00;52.90
36690;DHT22;22676;51.120;3.702;2023-05-10T11:44:37;23.90;53.20
36690;DHT22;22676;51.120;3.702;2023-05-10T11:47:02;23.90;53.40
36690;DHT22;22676;51.120;3.702;2023-05-10T11:49:28;23.90;53.60
36690;DHT22;22676;51.120;3.702;2023-05-10T11:52:03;23.80;53.60
36690;DHT22;22676;51.120;3.702;2023-05-10T11:54:28;23.80;53.70
36690;DHT22;22676;51.120;3.702;2023-05-10T11:56:54;23.80;53.80
36690;DHT22;22676;51.120;3.702;2023-05-10T11:59:19;23.80;53.90
36690;DHT22;22676;51.120;3.702;2023-05-10T12:01:45;23.80;54.00
36690;DHT22;22676;51.120;3.702;2023-05-10T12:04:10;23.80;54.00
36690;DHT22;22676;51.120;3.702;2023-05-10T12:06:37;23.80;54.00
36690;DHT22;22676;51.120;3.702;2023-05-10T12:09:06;23.80;54.70
36690;DHT22;22676;51.120;3.702;2023-05-10T12:11:32;23.80;55.20
36690;DHT22;22676;51.120;3.702;2023-05-10T12:14:03;23.80;54.70
36690;DHT22;22676;51.120;3.702;2023-05-10T12:16:29;23.80;55.00
36690;DHT22;22676;51.120;3.702;2023-05-10T12:18:59;23.80;56.00
36690;DHT22;22676;51.120;3.702;2023-05-10T12:21:25;23.70;54.70
36690;DHT22;22676;51.120;3.702;2023-05-10T12:23:52;23.70;54.40
36690;DHT22;22676;51.120;3.702;2023-05-10T12:26:18;23.70;54.50
36690;DHT22;22676;51.120;3.702;2023-05-10T12:28:43;23.60;54.70
36690;DHT22;22676;51.120;3.702;2023-05-10T12:31:09;23.60;55.00
36690;DHT22;22676;51.120;3.702;2023-05-10T12:33:40;23.60;54.90
36690;DHT22;22676;51.120;3.702;2023-05-10T12:36:09;23.60;54.60
36690;DHT22;22676;51.120;3.702;2023-05-10T12:38:36;23.70;54.60
36690;DHT22;22676;51.120;3.702;2023-05-10T12:41:06;23.60;55.10
36690;DHT22;22676;51.120;3.702;2023-05-10T12:43:32;23.60;54.80
36690;DHT22;22676;51.120;3.702;2023-05-10T12:45:58;23.60;55.10
36690;DHT22;22676;51.120;3.702;2023-05-10T12:48:24;23.60;54.60
36690;DHT22;22676;51.120;3.702;2023-05-10T12:50:49;23.60;54.60
36690;DHT22;22676;51.120;3.702;2023-05-10T12:53:16;23.60;54.80
36690;DHT22;22676;51.120;3.702;2023-05-10T12:55:42;23.60;55.10
36690;DHT22;22676;51.120;3.702;2023-05-10T12:58:08;23.60;55.30
36690;DHT22;22676;51.120;3.702;2023-05-10T13:00:34;23.60;55.40
36690;DHT22;22676;51.120;3.702;2023-05-10T13:02:59;23.60;55.20
36690;DHT22;22676;51.120;3.702;2023-05-10T13:05:25;23.60;55.00
36690;DHT22;22676;51.120;3.702;2023-05-10T13:07:50;23.60;55.10
36690;DHT22;22676;51.120;3.702;2023-05-10T13:10:16;23.70;55.10
36690;DHT22;22676;51.120;3.702;2023-05-10T13:12:42;23.70;54.90
36690;DHT22;22676;51.120;3.702;2023-05-10T13:15:07;23.70;55.00
36690;DHT22;22676;51.120;3.702;2023-05-10T13:17:33;23.70;54.90
36690;DHT22;22676;51.120;3.702;2023-05-10T13:19:59;23.60;55.10
36690;DHT22;22676;51.120;3.702;2023-05-10T13:22:24;23.70;55.00
36690;DHT22;22676;51.120;3.702;2023-05-10T13:24:50;23.60;55.10
36690;DHT22;22676;51.120;3.702;2023-05-10T13:27:15;23.60;55.20
36690;DHT22;22676;51.120;3.702;2023-05-10T13:29:41;23.80;55.30
36690;DHT22;22676;51.120;3.702;2023-05-10T13:32:07;23.70;55.00
36690;DHT22;22676;51.120;3.702;2023-05-10T13:34:32;23.80;55.00
36690;DHT22;22676;51.120;3.702;2023-05-10T13:36:58;23.70;55.00
36690;DHT22;22676;51.120;3.702;2023-05-10T13:39:24;23.70;55.00
36690;DHT22;22676;51.120;3.702;2023-05-10T13:41:49;23.80;54.90
36690;DHT22;22676;51.120;3.702;2023-05-10T13:44:15;23.80;54.70
36690;DHT22;22676;51.120;3.702;2023-05-10T13:46:41;23.80;54.80
36690;DHT22;22676;51.120;3.702;2023-05-10T13:49:08;23.60;55.30
36690;DHT22;22676;51.120;3.702;2023-05-10T13:51:34;23.50;55.70
36690;DHT22;22676;51.120;3.702;2023-05-10T13:53:59;23.50;56.00
36690;DHT22;22676;51.120;3.702;2023-05-10T13:56:25;23.60;56.30
36690;DHT22;22676;51.120;3.702;2023-05-10T13:58:50;23.50;56.30
36690;DHT22;22676;51.120;3.702;2023-05-10T14:01:16;23.50;56.60
36690;DHT22;22676;51.120;3.702;2023-05-10T14:03:42;23.50;56.80
36690;DHT22;22676;51.120;3.702;2023-05-10T14:06:07;23.50;56.70
36690;DHT22;22676;51.120;3.702;2023-05-10T14:08:33;23.60;56.60
36690;DHT22;22676;51.120;3.702;2023-05-10T14:10:59;23.50;56.90
36690;DHT22;22676;51.120;3.702;2023-05-10T14:13:25;23.50;57.10
36690;DHT22;22676;51.120;3.702;2023-05-10T14:15:51;23.50;57.20
36690;DHT22;22676;51.120;3.702;2023-05-10T14:18:17;23.50;57.30
36690;DHT22;22676;51.120;3.702;2023-05-10T14:20:43;23.50;57.60
36690;DHT22;22676;51.120;3.702;2023-05-10T14:23:08;23.50;57.70
36690;DHT22;22676;51.120;3.702;2023-05-10T14:25:34;23.50;57.90
36690;DHT22;22676;51.120;3.702;2023-05-10T14:27:59;23.50;58.20
36690;DHT22;22676;51.120;3.702;2023-05-10T14:30:25;23.50;58.20
36690;DHT22;22676;51.120;3.702;2023-05-10T14:32:51;23.50;58.30
36690;DHT22;22676;51.120;3.702;2023-05-10T14:35:19;23.50;58.30
36690;DHT22;22676;51.120;3.702;2023-05-10T14:37:44;23.50;58.30
36690;DHT22;22676;51.120;3.702;2023-05-10T14:40:10;23.50;58.40
36690;DHT22;22676;51.120;3.702;2023-05-10T14:42:36;23.60;58.30
36690;DHT22;22676;51.120;3.702;2023-05-10T14:45:01;23.70;58.00
36690;DHT22;22676;51.120;3.702;2023-05-10T14:47:27;23.70;58.20
36690;DHT22;22676;51.120;3.702;2023-05-10T14:49:52;23.70;58.10
36690;DHT22;22676;51.120;3.702;2023-05-10T14:52:18;23.70;58.30
36690;DHT22;22676;51.120;3.702;2023-05-10T14:54:43;23.80;58.00
36690;DHT22;22676;51.120;3.702;2023-05-10T14:57:09;23.80;57.90
36690;DHT22;22676;51.120;3.702;2023-05-10T14:59:34;23.80;57.90
36690;DHT22;22676;51.120;3.702;2023-05-10T15:02:00;23.90;57.60
36690;DHT22;22676;51.120;3.702;2023-05-10T15:04:26;24.00;57.40
36690;DHT22;22676;51.120;3.702;2023-05-10T15:06:52;23.90;57.40
36690;DHT22;22676;51.120;3.702;2023-05-10T15:09:24;24.00;57.50
36690;DHT22;22676;51.120;3.702;2023-05-10T15:11:49;23.90;57.50
36690;DHT22;22676;51.120;3.702;2023-05-10T15:14:15;23.90;57.70
36690;DHT22;22676;51.120;3.702;2023-05-10T15:16:41;23.80;57.80
36690;DHT22;22676;51.120;3.702;2023-05-10T15:19:06;23.80;58.00
36690;DHT22;22676;51.120;3.702;2023-05-10T15:21:32;23.70;57.90
36690;DHT22;22676;51.120;3.702;2023-05-10T15:24:06;24.00;57.40
36690;DHT22;22676;51.120;3.702;2023-05-10T15:26:32;23.90;57.30
36690;DHT22;22676;51.120;3.702;2023-05-10T15:28:58;23.90;57.40
36690;DHT22;22676;51.120;3.702;2023-05-10T15:31:23;23.80;57.70
36690;DHT22;22676;51.120;3.702;2023-05-10T15:33:49;23.80;57.90
36690;DHT22;22676;51.120;3.702;2023-05-10T15:36:14;23.80;57.70
36690;DHT22;22676;51.120;3.702;2023-05-10T15:38:43;24.00;57.60
36690;DHT22;22676;51.120;3.702;2023-05-10T15:41:08;23.90;57.40
36690;DHT22;22676;51.120;3.702;2023-05-10T15:43:33;24.00;57.10
36690;DHT22;22676;51.120;3.702;2023-05-10T15:45:59;24.00;57.00
36690;DHT22;22676;51.120;3.702;2023-05-10T15:48:25;24.10;57.10
36690;DHT22;22676;51.120;3.702;2023-05-10T15:50:50;24.00;56.80
36690;DHT22;22676;51.120;3.702;2023-05-10T15:53:16;24.00;57.00